Latest Coastal Weather Observations for Barrow Island

IDW60701

Issued at 9:52 pm WST Tuesday 9 February 2016 (issued every 10 minutes, with the page automatically refreshed every 10 minutes)

About coastal observations | Map of coastal stations | Coastal observations for WA | Marine services | Other Formats
Station Details ID: 005094 Name: BARROW ISLAND AIRPORT Lat: -20.88 Lon: 115.41 Height: 6.4 m
Data from the previous 72 hours. | See also: Recent months at Barrow Island
Date/Time
WST
Temp

°C
Wind Pressure Rain
since 9am
mm
Weather Cloud Vis
km
Sea
Height
m
Swell
Dir
 
Speed
knots
Gust
knots
hPa Trend Height
m
Period
s
Dir
09/09:30pm 28.1 W 8 9 1008.9 - 0.0 - - - - - - -
09/09:00pm 28.6 W 9 11 1008.8 - 0.0 - - - - - - -
09/08:30pm 28.8 W 10 12 1008.4 - 0.0 - - - - - - -
09/08:00pm 28.9 W 12 15 1008.1 - 0.0 - - - - - - -
09/07:30pm 29.3 W 12 15 1007.8 - 0.0 - - - - - - -
09/07:00pm 30.5 W 13 15 1007.6 - 0.0 - - - - - - -
09/06:30pm 32.0 W 12 16 1007.2 - 0.0 - - - - - - -
09/06:00pm 33.4 W 13 16 1006.9 - 0.0 - - - - - - -
09/05:30pm 34.8 WNW 13 15 1006.7 - 0.0 - - - - - - -
09/05:00pm 36.2 WNW 13 16 1006.6 - 0.0 - - - - - - -
09/04:30pm 37.5 W 12 15 1006.6 - 0.0 - - - - - - -
09/04:00pm 37.4 WSW 12 14 1006.6 - 0.0 - - - - - - -
09/03:30pm 39.0 WSW 12 15 1006.7 - 0.0 - - - - - - -
09/03:00pm 39.7 WSW 11 14 1006.9 - 0.0 - - - - - - -
09/02:30pm 39.9 W 11 14 1007.1 - 0.0 - - - - - - -
09/02:00pm 38.4 WSW 12 15 1007.4 - 0.0 - - - - - - -
09/01:30pm 37.4 WSW 12 15 1007.8 - 0.0 - - - - - - -
09/01:00pm 36.6 SW 11 14 1008.2 - 0.0 - - - - - - -
09/12:30pm 35.8 SSW 8 10 1008.7 - 0.0 - - - - - - -
09/12:00pm 33.2 SSW 9 10 1009.1 - 0.0 - - - - - - -
09/11:30am 31.9 SSW 9 11 1009.4 - 0.0 - - - - - - -
09/11:00am 31.9 SSW 9 11 1009.5 - 0.0 - - - - - - -
09/10:30am 31.6 SSW 7 9 1009.9 - 0.0 - - - - - - -
09/10:00am 30.9 SSW 6 9 1010.1 - 0.0 - - - - - - -
09/09:30am 30.7 S 6 7 1010.2 - 0.0 - - - - - - -
09/09:00am 30.4 S 4 6 1010.1 - 0.0 - - - - - - -
09/08:30am 30.0 SSE 5 6 1010.0 - 0.0 - - - - - - -
09/08:00am 29.5 SE 3 4 1009.9 - 0.0 - - - - - - -
09/07:30am 29.3 ESE 5 6 1010.0 - 0.0 - - - - - - -
09/07:00am 28.5 SSW 7 9 1009.4 - 0.0 - - - - - - -
09/06:30am 27.6 SSW 8 10 1008.9 - 0.0 - - - - - - -
09/06:00am 27.4 SW 12 15 1008.6 - 0.0 - - - - - - -
09/05:30am 27.3 SW 9 11 1008.5 - 0.0 - - - - - - -
09/05:00am 26.7 SW 7 10 1008.6 - 0.0 - - - - - - -
09/04:30am 27.4 SW 6 7 1008.4 - 0.0 - - - - - - -
09/04:00am 27.1 SW 6 8 1008.2 - 0.0 - - - - - - -
09/03:30am 27.1 WSW 7 9 1008.2 - 0.0 - - - - - - -
09/03:00am 27.7 SW 8 10 1008.1 - 0.0 - - - - - - -
09/02:30am 27.7 WSW 9 10 1008.3 - 0.0 - - - - - - -
09/02:00am 27.8 WSW 10 12 1008.7 - 0.0 - - - - - - -
09/01:30am 28.1 SW 12 15 1009.2 - 0.0 - - - - - - -
09/01:00am 27.9 SW 10 12 1009.6 - 0.0 - - - - - - -
09/12:30am 27.1 WSW 7 9 1009.6 - 0.0 - - - - - - -
09/12:00am 27.3 WSW 8 10 1009.6 - 0.0 - - - - - - -
 
Date/Time
WST
Temp

°C
Wind Pressure Rain
since 9am
mm
Weather Cloud Vis
km
Sea
Height
m
Swell
Dir
 
Speed
knots
Gust
knots
hPa Trend Height
m
Period
s
Dir
08/11:30pm 27.4 SW 9 11 1010.0 - 0.0 - - - - - - -
08/11:00pm 27.8 WSW 11 13 1010.2 - 0.0 - - - - - - -
08/10:30pm 27.7 WSW 11 14 1010.2 - 0.0 - - - - - - -
08/10:00pm 27.7 WSW 9 11 1010.1 - 0.0 - - - - - - -
08/09:30pm 27.8 WSW 8 9 1010.0 - 0.0 - - - - - - -
08/09:00pm 28.0 WSW 8 10 1009.6 - 0.0 - - - - - - -
08/08:30pm 28.1 WSW 10 13 1009.4 - 0.0 - - - - - - -
08/08:00pm 28.4 WSW 11 14 1008.9 - 0.0 - - - - - - -
08/07:30pm 28.7 W 12 14 1008.5 - 0.0 - - - - - - -
08/07:00pm 29.4 W 14 16 1007.9 - 0.0 - - - - - - -
08/06:30pm 30.7 WNW 14 16 1007.5 - 0.0 - - - - - - -
08/06:00pm 32.1 W 15 18 1007.3 - 0.0 - - - - - - -
08/05:30pm 33.3 WNW 14 18 1007.1 - 0.0 - - - - - - -
08/05:00pm 34.3 WNW 14 17 1007.0 - 0.0 - - - - - - -
08/04:30pm 33.6 W 14 17 1007.1 - 0.0 - - - - - - -
08/04:00pm 35.1 W 14 17 1007.2 - 0.0 - - - - - - -
08/03:30pm 34.9 W 15 19 1007.4 - 0.0 - - - - - - -
08/03:00pm 34.4 W 14 17 1007.7 - 0.0 - - - - - - -
08/02:30pm 34.4 W 14 17 1007.9 - 0.0 - - - - - - -
08/02:00pm 34.3 W 15 18 1008.1 - 0.0 - - - - - - -
08/01:30pm 34.1 W 13 17 1008.3 - 0.0 - - - - - - -
08/01:00pm 33.1 W 13 17 1008.6 - 0.0 - - - - - - -
08/12:30pm 32.7 WSW 14 18 1009.1 - 0.0 - - - - - - -
08/12:00pm 32.5 WSW 13 16 1009.5 - 0.0 - - - - - - -
08/11:30am 32.6 WSW 12 17 1009.7 - 0.0 - - - - - - -
08/11:00am 32.6 WSW 11 15 1010.2 - 0.0 - - - - - - -
08/10:30am 33.1 WSW 12 16 1010.3 - 0.0 - - - - - - -
08/10:00am 33.2 S 10 13 1010.2 - 0.0 - - - - - - -
08/09:30am 33.8 S 5 8 1010.0 - 0.0 - - - - - - -
08/09:00am 32.9 ESE 4 5 1010.0 - 0.0 - - - - - - -
08/08:30am 31.9 E 3 5 1009.9 - 0.0 - - - - - - -
08/08:00am 29.6 SSW 4 5 1009.5 - 0.0 - - - - - - -
08/07:30am 28.7 S 4 6 1009.4 - 0.0 - - - - - - -
08/07:00am 27.1 W 1 4 1009.3 - 0.0 - - - - - - -
08/06:30am 26.4 WSW 7 8 1008.8 - 0.0 - - - - - - -
08/06:00am 26.0 WSW 8 10 1008.7 - 0.0 - - - - - - -
08/05:30am 25.7 WSW 6 7 1008.8 - 0.0 - - - - - - -
08/05:00am 25.7 WSW 7 8 1008.8 - 0.0 - - - - - - -
08/04:30am 25.2 W 8 9 1008.8 - 0.0 - - - - - - -
08/04:00am 25.1 WNW 8 9 1009.0 - 0.0 - - - - - - -
08/03:30am 25.2 WNW 6 7 1009.2 - 0.0 - - - - - - -
08/03:00am 25.9 W 6 7 1009.5 - 0.0 - - - - - - -
08/02:30am 26.6 WSW 7 8 1009.5 - 0.0 - - - - - - -
08/02:00am 27.4 SW 10 12 1009.7 - 0.0 - - - - - - -
08/01:30am 27.6 SW 12 13 1010.1 - 0.0 - - - - - - -
08/01:00am 27.3 SW 9 11 1010.7 - 0.0 - - - - - - -
08/12:30am 27.3 WSW 11 13 1010.6 - 0.0 - - - - - - -
08/12:00am 27.4 WSW 11 13 1010.7 - 0.0 - - - - - - -
 
Date/Time
WST
Temp

°C
Wind Pressure Rain
since 9am
mm
Weather Cloud Vis
km
Sea
Height
m
Swell
Dir
 
Speed
knots
Gust
knots
hPa Trend Height
m
Period
s
Dir
07/11:30pm 27.3 WSW 11 13 1010.7 - 0.0 - - - - - - -
07/11:00pm 27.1 W 9 11 1010.8 - 0.0 - - - - - - -
07/10:30pm 27.2 W 10 13 1010.8 - 0.0 - - - - - - -
07/10:00pm 27.4 W 10 13 1010.7 - 0.0 - - - - - - -
07/09:30pm 27.6 W 12 14 1010.4 - 0.0 - - - - - - -
07/09:00pm 27.6 W 12 16 1010.0 - 0.0 - - - - - - -
07/08:30pm 27.8 W 9 13 1009.6 - 0.0 - - - - - - -
07/08:00pm 28.0 W 10 14 1009.2 - 0.0 - - - - - - -
07/07:30pm 28.3 WNW 13 15 1008.7 - 0.0 - - - - - - -
07/07:00pm 29.0 WNW 13 16 1008.4 - 0.0 - - - - - - -
07/06:30pm 30.1 WNW 16 19 1007.9 - 0.0 - - - - - - -
07/06:00pm 31.5 WNW 16 19 1007.5 - 0.0 - - - - - - -
07/05:30pm 32.6 WNW 16 18 1007.2 - 0.0 - - - - - - -
07/05:00pm 33.5 WNW 16 19 1007.0 - 0.0 - - - - - - -
07/04:30pm 34.6 WNW 15 19 1006.9 - 0.0 - - - - - - -
07/04:00pm 35.8 WNW 13 17 1007.2 - 0.0 - - - - - - -
07/03:30pm 36.6 W 12 17 1007.4 - 0.0 - - - - - - -
07/03:00pm 36.2 NW 12 17 1007.7 - 0.0 - - - - - - -
07/02:30pm 33.7 E 5 7 1007.9 - 0.0 - - - - - - -
07/02:00pm 32.3 E 10 12 1008.3 - 0.0 - - - - - - -
07/01:30pm 32.2 ESE 11 16 1008.5 - 0.0 - - - - - - -
07/01:00pm 35.3 S 8 12 1008.6 - 0.0 - - - - - - -
07/12:30pm 33.2 S 9 12 1008.9 - 0.0 - - - - - - -
07/12:00pm 32.0 S 9 10 1009.1 - 0.0 - - - - - - -
07/11:30am 31.7 S 8 9 1009.4 - 0.0 - - - - - - -
07/11:00am 31.3 SSE 7 7 1009.6 - 0.0 - - - - - - -
07/10:30am 30.7 SE 6 7 1009.8 - 0.0 - - - - - - -
07/10:00am 31.5 SSE 6 7 1009.7 - 0.0 - - - - - - -
07/09:30am 31.2 S 7 9 1009.7 - 0.0 - - - - - - -
07/09:00am 30.5 S 9 10 1009.6 - 0.0 - - - - - - -
07/08:30am 30.9 SSE 4 6 1009.3 - 0.0 - - - - - - -
07/08:00am 29.9 W 5 7 1008.9 - 0.0 - - - - - - -
07/07:30am 27.5 WNW 5 6 1008.5 - 0.0 - - - - - - -
07/07:00am 26.4 NNE 4 5 1008.4 - 0.0 - - - - - - -
07/06:30am 25.6 WNW 6 7 1007.8 - 0.0 - - - - - - -
07/06:00am 25.3 NW 7 8 1007.5 - 0.0 - - - - - - -
07/05:30am 25.3 NW 8 9 1007.3 - 0.0 - - - - - - -
07/05:00am 25.5 NW 7 9 1007.2 - 0.0 - - - - - - -
07/04:30am 25.3 NNW 6 7 1007.2 - 0.0 - - - - - - -
07/04:00am 25.4 NNW 6 8 1007.1 - 0.0 - - - - - - -
07/03:30am 25.4 NNW 5 7 1007.2 - 0.0 - - - - - - -
07/03:00am 25.3 NNW 5 6 1007.2 - 0.0 - - - - - - -
07/02:30am 25.2 NNW 6 7 1007.2 - 0.0 - - - - - - -
07/02:00am 25.3 NNW 5 6 1007.4 - 0.0 - - - - - - -
07/01:30am 25.8 NW 5 7 1007.9 - 0.0 - - - - - - -
07/01:00am 26.3 WSW 6 8 1008.1 - 0.0 - - - - - - -
07/12:30am 26.8 WSW 8 9 1008.4 - 0.0 - - - - - - -
07/12:00am 27.0 WSW 7 9 1008.7 - 0.0 - - - - - - -
 
Date/Time
WST
Temp

°C
Wind Pressure Rain
since 9am
mm
Weather Cloud Vis
km
Sea
Height
m
Swell
Dir
 
Speed
knots
Gust
knots
hPa Trend Height
m
Period
s
Dir
06/11:30pm 26.7 W 7 8 1008.8 - 0.0 - - - - - - -
06/11:00pm 26.9 W 8 10 1008.9 - 0.0 - - - - - - -
06/10:30pm 27.0 W 9 11 1008.7 - 0.0 - - - - - - -
06/10:00pm 27.0 W 8 11 1008.4 - 0.0 - - - - - - -

Other Formats:

Comma delimited format used in spreadsheet applications
http://www.bom.gov.au/fwo/IDW60701/IDW60701.95304.axf

JavaScript Object Notation format (JSON) in row-major order
http://www.bom.gov.au/fwo/IDW60701/IDW60701.95304.json